Time;durP1;ratioP1;P1;durP2;ratioP2;P2;SDS_P1;SDS_P2;PMS_P1;PMS_P2;Temp;Humidity;BMP_temperature;BMP_pressure;BME280_temperature;BME280_humidity;BME280_pressure;Samples;Min_cycle;Max_cycle;Signal;HPM_P1;HPM_P2
2023/06/03 00:01:27;;;;;;;3.40;1.92;;;;;;;16.24;59.50;99775.34;6321957;28;20056;-69
2023/06/03 00:04:29;;;;;;;5.32;1.92;;;;;;;16.26;60.17;99773.41;6322169;28;20134;-69
2023/06/03 00:07:30;;;;;;;12.77;2.22;;;;;;;16.28;59.89;99761.75;6320814;28;20044;-69
2023/06/03 00:10:30;;;;;;;3.80;2.20;;;;;;;16.13;60.68;99778.94;6322088;28;20070;-69
2023/06/03 00:13:31;;;;;;;3.58;1.95;;;;;;;16.21;60.69;99771.19;6320438;28;20048;-70
2023/06/03 00:16:35;;;;;;;3.75;1.88;;;;;;;16.07;61.63;99777.66;6322020;28;20044;-70
2023/06/03 00:19:35;;;;;;;7.95;1.95;;;;;;;16.04;61.72;99775.31;6320660;28;20082;-69
2023/06/03 00:22:37;;;;;;;5.95;2.00;;;;;;;15.97;61.85;99779.44;6320909;28;20056;-70
2023/06/03 00:25:38;;;;;;;3.05;2.08;;;;;;;15.96;62.56;99788.31;6320454;28;20132;-70
2023/06/03 00:28:38;;;;;;;3.53;1.95;;;;;;;15.84;62.57;99784.13;6320415;28;20052;-69
2023/06/03 00:31:41;;;;;;;3.47;2.13;;;;;;;15.65;63.60;99790.13;6321518;28;20052;-70
2023/06/03 00:34:42;;;;;;;2.35;1.58;;;;;;;15.73;63.48;99786.84;6312780;28;20139;-70
2023/06/03 00:37:45;;;;;;;4.53;1.83;;;;;;;15.47;64.13;99787.28;6296680;28;20056;-70
2023/06/03 00:40:48;;;;;;;1.88;1.67;;;;;;;15.71;63.56;99784.34;6296237;28;20097;-70
2023/06/03 00:43:49;;;;;;;3.60;2.17;;;;;;;15.75;63.49;99785.75;6296423;28;20055;-69
2023/06/03 00:46:50;;;;;;;4.47;2.05;;;;;;;15.70;63.71;99782.66;6298564;28;20476;-71
2023/06/03 00:49:51;;;;;;;3.40;1.77;;;;;;;15.55;64.04;99795.34;6301242;28;20048;-72
2023/06/03 00:52:53;;;;;;;3.55;1.75;;;;;;;15.60;64.11;99798.38;6299533;28;20044;-71
2023/06/03 00:55:54;;;;;;;3.20;1.52;;;;;;;15.51;65.02;99802.66;6299867;28;20077;-70
2023/06/03 00:58:54;;;;;;;2.75;1.60;;;;;;;15.42;64.88;99803.44;6300679;28;20396;-70
2023/06/03 01:01:55;;;;;;;3.25;2.08;;;;;;;15.50;65.00;99801.00;6299727;28;20056;-70
2023/06/03 01:04:57;;;;;;;3.08;1.50;;;;;;;15.44;65.04;99793.63;6299354;28;20048;-70
2023/06/03 01:08:09;;;;;;;5.03;2.08;;;;;;;15.10;65.52;99790.41;6299106;28;20484;-71
2023/06/03 01:11:36;;;;;;;2.65;1.65;;;;;;;14.98;66.50;99802.75;6298964;28;20060;-70
2023/06/03 01:15:04;;;;;;;2.50;1.73;;;;;;;14.96;66.91;99807.31;6300166;28;20086;-71
2023/06/03 01:18:06;;;;;;;5.00;2.05;;;;;;;15.04;65.97;99786.47;6299060;28;20048;-71
2023/06/03 01:21:07;;;;;;;1.83;1.55;;;;;;;15.06;66.62;99797.69;6299225;28;20437;-70
2023/06/03 01:24:17;;;;;;;1.70;1.40;;;;;;;14.96;66.11;99793.34;6298974;28;20055;-71
2023/06/03 01:27:20;;;;;;;6.57;1.50;;;;;;;14.88;66.79;99799.22;6311086;28;20051;-71
2023/06/03 01:30:21;;;;;;;3.40;1.45;;;;;;;14.85;67.27;99794.25;6300248;28;20059;-71
2023/06/03 01:33:30;;;;;;;3.05;1.50;;;;;;;15.00;67.35;99803.47;6299926;28;20048;-71
2023/06/03 01:36:31;;;;;;;2.25;1.58;;;;;;;14.85;67.25;99795.06;6298571;28;20056;-71
2023/06/03 01:39:32;;;;;;;4.03;1.83;;;;;;;14.71;67.86;99792.75;6298887;28;20097;-71
2023/06/03 01:42:35;;;;;;;3.53;1.50;;;;;;;14.66;68.58;99795.75;6299648;28;20136;-71
2023/06/03 01:45:38;;;;;;;5.88;1.60;;;;;;;14.73;68.77;99803.13;6299770;28;20473;-70
2023/06/03 01:48:39;;;;;;;2.08;1.45;;;;;;;14.74;68.55;99794.28;6299728;28;20059;-71
2023/06/03 01:51:40;;;;;;;2.78;1.80;;;;;;;14.70;67.96;99810.31;6298527;28;20052;-71
2023/06/03 01:54:41;;;;;;;2.28;1.50;;;;;;;14.69;67.41;99803.38;6299490;28;20045;-72
2023/06/03 01:57:46;;;;;;;3.20;1.83;;;;;;;14.60;67.11;99804.16;6297433;28;20477;-72
2023/06/03 02:00:48;;;;;;;2.83;1.52;;;;;;;14.67;67.08;99807.91;6299259;28;20060;-71
2023/06/03 02:03:48;;;;;;;3.10;1.52;;;;;;;14.57;67.17;99814.88;6299368;28;20080;-72
2023/06/03 02:06:51;;;;;;;2.70;1.70;;;;;;;14.43;67.81;99815.13;6299333;28;20062;-71
2023/06/03 02:09:52;;;;;;;1.92;1.38;;;;;;;14.41;67.78;99812.66;6299174;28;20259;-71
2023/06/03 02:12:53;;;;;;;7.10;1.80;;;;;;;14.46;67.70;99818.34;6299261;28;20052;-71
2023/06/03 02:15:54;;;;;;;2.67;1.50;;;;;;;14.46;67.34;99823.59;6297584;28;20056;-72
2023/06/03 02:18:54;;;;;;;2.40;1.45;;;;;;;14.27;68.13;99836.56;6297699;28;20059;-70
2023/06/03 02:21:58;;;;;;;2.10;1.52;;;;;;;14.50;67.01;99832.06;6298855;28;20057;-70
2023/06/03 02:24:59;;;;;;;2.05;1.48;;;;;;;14.50;67.29;99832.91;6298729;28;20079;-70
2023/06/03 02:27:59;;;;;;;2.90;1.48;;;;;;;14.44;67.89;99835.19;6298496;28;20389;-70
2023/06/03 02:31:03;;;;;;;4.22;1.60;;;;;;;14.34;68.10;99839.50;6298681;28;20057;-70
2023/06/03 02:34:03;;;;;;;3.60;1.75;;;;;;;14.37;68.07;99855.00;6297426;28;20048;-70
2023/06/03 02:37:05;;;;;;;2.03;1.50;;;;;;;14.26;68.14;99845.38;6314836;28;20048;-70
2023/06/03 02:40:09;;;;;;;2.88;1.63;;;;;;;14.17;69.58;99859.22;6323634;28;20069;-69
2023/06/03 02:43:10;;;;;;;2.33;1.77;;;;;;;14.23;68.95;99867.44;6322124;28;20123;-70
2023/06/03 02:46:12;;;;;;;5.10;1.40;;;;;;;14.14;68.88;99860.28;6322304;28;20063;-70
2023/06/03 02:49:14;;;;;;;2.03;1.30;;;;;;;14.22;69.12;99860.50;6317904;28;20091;-70
2023/06/03 02:52:15;;;;;;;2.60;1.45;;;;;;;14.22;69.66;99864.94;6321341;28;20048;-70
2023/06/03 02:55:18;;;;;;;1.90;1.33;;;;;;;14.07;70.43;99873.06;6310964;28;20053;-70
2023/06/03 02:58:21;;;;;;;2.58;1.50;;;;;;;14.10;70.73;99885.09;6296711;28;20055;-71
2023/06/03 03:01:23;;;;;;;3.13;1.90;;;;;;;14.14;71.09;99878.66;6298100;28;20138;-71
2023/06/03 03:04:26;;;;;;;3.67;1.67;;;;;;;14.08;70.69;99882.63;6298019;28;20053;-70
2023/06/03 03:07:27;;;;;;;4.70;1.63;;;;;;;14.24;71.11;99874.34;6297862;28;20136;-70
2023/06/03 03:10:27;;;;;;;4.22;1.38;;;;;;;14.19;70.38;99876.50;6296865;28;20041;-70
2023/06/03 03:13:28;;;;;;;6.07;1.40;;;;;;;14.19;70.71;99879.13;6296575;28;20637;-70
2023/06/03 03:16:29;;;;;;;2.67;1.58;;;;;;;14.16;70.74;99879.38;6310643;28;20050;-70
2023/06/03 03:19:30;;;;;;;1.77;1.23;;;;;;;14.10;71.43;99872.84;6315333;28;20132;-70
2023/06/03 03:22:30;;;;;;;5.10;1.77;;;;;;;14.13;71.19;99882.25;6308404;28;20101;-70
2023/06/03 03:25:32;;;;;;;2.30;1.25;;;;;;;14.01;71.97;99891.06;6305997;28;20451;-69
2023/06/03 03:28:32;;;;;;;2.00;1.50;;;;;;;14.03;71.87;99894.41;6296175;28;20466;-70
2023/06/03 03:31:36;;;;;;;1.67;1.00;;;;;;;14.22;71.43;99901.66;6297186;28;20056;-70
2023/06/03 03:34:38;;;;;;;2.67;1.60;;;;;;;14.19;71.54;99899.31;6295893;28;20508;-69
2023/06/03 03:37:42;;;;;;;3.60;1.20;;;;;;;14.26;70.51;99889.97;6297194;28;20048;-69
2023/06/03 03:40:43;;;;;;;2.20;0.98;;;;;;;14.22;70.61;99899.03;6295960;28;20135;-70
2023/06/03 03:43:44;;;;;;;3.17;1.30;;;;;;;14.10;70.44;99908.69;6295825;28;20421;-69
2023/06/03 03:46:56;;;;;;;4.13;1.17;;;;;;;14.27;69.86;99910.03;6297061;28;20277;-69
2023/06/03 03:50:01;;;;;;;2.35;1.30;;;;;;;14.35;69.75;99914.66;6295175;28;20052;-70
2023/06/03 03:53:04;;;;;;;1.92;1.38;;;;;;;14.50;70.06;99913.44;6296230;28;20485;-70
2023/06/03 03:56:05;;;;;;;3.13;1.27;;;;;;;14.47;69.95;99929.44;6296171;28;20059;-70
2023/06/03 03:59:07;;;;;;;1.95;1.17;;;;;;;14.36;69.20;99945.22;6296274;28;20048;-70
2023/06/03 04:02:07;;;;;;;2.10;1.25;;;;;;;14.38;69.62;99946.75;6295100;28;20051;-70
2023/06/03 04:05:13;;;;;;;1.98;1.23;;;;;;;14.51;69.72;99941.34;6303538;28;20060;-70
2023/06/03 04:08:40;;;;;;;2.30;1.02;;;;;;;14.42;69.16;99935.06;6321228;28;20488;-70
2023/06/03 04:11:44;;;;;;;1.77;1.10;;;;;;;14.43;70.28;99952.50;6305121;28;20091;-70
2023/06/03 04:14:50;;;;;;;2.95;0.93;;;;;;;14.16;69.75;99941.50;6296803;28;20056;-71
2023/06/03 04:17:51;;;;;;;1.52;1.00;;;;;;;14.26;69.62;99951.16;6296906;28;20059;-70
2023/06/03 04:20:56;;;;;;;3.60;1.23;;;;;;;14.18;69.85;99947.47;6297896;28;20048;-71
2023/06/03 04:23:56;;;;;;;1.30;0.68;;;;;;;14.18;69.51;99956.16;6300850;28;20041;-71
2023/06/03 04:26:57;;;;;;;2.40;1.20;;;;;;;14.44;69.32;99953.31;6301719;28;20131;-70
2023/06/03 04:30:01;;;;;;;1.08;0.80;;;;;;;14.41;70.20;99948.28;6300086;28;20052;-71
2023/06/03 04:33:02;;;;;;;1.40;1.00;;;;;;;14.30;68.76;99949.97;6300071;28;20054;-71
2023/06/03 04:36:03;;;;;;;4.13;0.98;;;;;;;14.39;68.49;99947.56;6300717;28;20053;-70
2023/06/03 04:39:08;;;;;;;0.82;0.75;;;;;;;14.27;68.64;99952.03;6299562;28;20088;-71
2023/06/03 04:42:12;;;;;;;3.17;1.15;;;;;;;14.50;68.64;99963.34;6299124;28;20052;-71
2023/06/03 04:45:14;;;;;;;1.42;0.80;;;;;;;14.44;68.35;99963.81;6301147;28;20090;-72
2023/06/03 04:48:16;;;;;;;;;;;;;;;14.35;69.20;99962.75;6300257;28;20058;-72
2023/06/03 04:51:16;;;;;;;2.95;1.20;;;;;;;14.18;67.29;99968.47;6300973;28;20296;-70
2023/06/03 04:54:23;;;;;;;0.70;0.70;;;;;;;14.24;67.39;99974.06;6301651;28;20059;-70
2023/06/03 04:57:24;;;;;;;5.30;1.08;;;;;;;14.40;67.41;99970.25;6306828;28;20542;-70
2023/06/03 05:00:26;;;;;;;1.35;0.93;;;;;;;14.59;66.68;99980.19;6299644;28;20056;-71
2023/06/03 05:03:29;;;;;;;2.03;0.98;;;;;;;14.61;65.69;99991.41;6299656;28;20139;-71
2023/06/03 05:06:33;;;;;;;2.92;1.23;;;;;;;14.46;64.27;99986.34;6300435;28;20452;-70
2023/06/03 05:09:34;;;;;;;1.05;0.80;;;;;;;14.58;63.40;99989.00;6300495;28;20635;-70
2023/06/03 05:12:35;;;;;;;0.95;0.82;;;;;;;14.72;63.93;99994.00;6300444;28;20052;-70
2023/06/03 05:15:37;;;;;;;2.38;1.10;;;;;;;14.63;62.66;99986.84;6299121;28;20196;-71
2023/06/03 05:18:40;;;;;;;2.13;0.77;;;;;;;14.88;62.79;99996.25;6300299;28;20094;-71
2023/06/03 05:21:43;;;;;;;1.80;0.93;;;;;;;15.04;60.69;99995.84;6298948;28;20096;-71
2023/06/03 05:24:44;;;;;;;1.85;1.00;;;;;;;15.17;60.03;100007.03;6300338;28;20051;-70
2023/06/03 05:27:45;;;;;;;2.80;0.95;;;;;;;15.17;59.34;100011.47;6300090;28;20057;-70
2023/06/03 05:30:46;;;;;;;2.63;0.82;;;;;;;15.13;59.44;100018.75;6300148;28;20056;-70
2023/06/03 05:33:49;;;;;;;1.17;0.68;;;;;;;15.26;59.32;100024.69;6298899;28;20048;-71
2023/06/03 05:36:52;;;;;;;2.05;0.63;;;;;;;15.34;58.22;100018.81;6298442;28;20132;-71
2023/06/03 05:39:53;;;;;;;1.88;0.73;;;;;;;15.41;57.96;100025.25;6306895;28;20055;-70
2023/06/03 05:42:55;;;;;;;2.50;0.57;;;;;;;15.34;56.10;100031.97;6303028;28;20098;-71
2023/06/03 05:45:56;;;;;;;1.05;0.70;;;;;;;15.13;56.62;100034.50;6307958;28;20416;-71
2023/06/03 05:48:56;;;;;;;0.73;0.50;;;;;;;14.90;57.01;100039.81;6301341;28;20144;-71
2023/06/03 05:51:59;;;;;;;0.60;0.47;;;;;;;14.96;55.75;100037.66;6299476;28;20052;-70
2023/06/03 05:55:00;;;;;;;0.68;0.60;;;;;;;15.25;55.44;100049.28;6299445;28;20052;-71
2023/06/03 05:58:06;;;;;;;1.98;0.75;;;;;;;15.31;53.67;100040.91;6298574;28;20109;-72
2023/06/03 06:01:07;;;;;;;3.53;0.68;;;;;;;15.48;53.65;100050.09;6301072;28;20116;-73
2023/06/03 06:04:08;;;;;;;2.65;0.70;;;;;;;15.75;52.71;100048.81;6303717;28;20047;-72
2023/06/03 06:07:08;;;;;;;3.42;1.35;;;;;;;15.74;52.75;100051.56;6322088;28;20459;-72
2023/06/03 06:10:10;;;;;;;0.70;0.70;;;;;;;15.87;51.54;100053.03;6322225;28;20075;-72
2023/06/03 06:13:10;;;;;;;1.53;0.60;;;;;;;15.63;52.12;100055.88;6320981;28;20127;-72
2023/06/03 06:16:11;;;;;;;0.82;0.50;;;;;;;15.60;52.45;100050.03;6322952;28;20044;-72
2023/06/03 06:19:12;;;;;;;5.22;0.73;;;;;;;15.62;51.85;100053.38;6323352;28;20055;-72
2023/06/03 06:22:13;;;;;;;1.55;0.88;;;;;;;15.75;51.60;100055.84;6322962;28;20134;-72
2023/06/03 06:25:14;;;;;;;3.20;0.70;;;;;;;15.51;50.65;100059.50;6314876;28;20048;-73
2023/06/03 06:28:24;;;;;;;2.60;0.57;;;;;;;15.83;52.00;100063.94;6319335;28;20529;-72
2023/06/03 06:31:25;;;;;;;3.67;0.60;;;;;;;15.86;49.69;100064.53;6298006;28;20052;-72
2023/06/03 06:34:29;;;;;;;1.80;0.50;;;;;;;16.02;49.42;100060.59;6298849;28;20083;-72
2023/06/03 06:37:30;;;;;;;0.60;0.57;;;;;;;15.75;49.11;100064.59;6317377;28;20051;-72
2023/06/03 06:40:34;;;;;;;3.13;0.90;;;;;;;15.47;49.04;100073.88;6322687;28;20083;-72
2023/06/03 06:43:35;;;;;;;0.50;0.40;;;;;;;15.64;48.94;100073.31;6307419;28;20045;-72
2023/06/03 06:46:37;;;;;;;2.23;0.37;;;;;;;16.36;47.58;100069.13;6318381;28;20055;-72
2023/06/03 06:49:38;;;;;;;1.90;0.38;;;;;;;16.96;46.77;100071.91;6308261;28;20083;-71
2023/06/03 06:52:39;;;;;;;0.40;0.40;;;;;;;17.31;45.72;100063.50;6316121;28;20048;-70
2023/06/03 06:56:15;;;;;;;0.68;0.52;;;;;;;17.20;45.21;100062.81;6309654;28;20063;-71
2023/06/03 06:59:16;;;;;;;0.93;0.65;;;;;;;17.27;44.20;100062.13;6295515;28;20048;-71
2023/06/03 07:02:16;;;;;;;1.13;0.43;;;;;;;17.63;44.97;100061.63;6297106;28;20051;-70
2023/06/03 07:05:17;;;;;;;0.77;0.47;;;;;;;17.53;45.04;100065.06;6296060;28;20511;-70
2023/06/03 07:08:19;;;;;;;1.17;0.82;;;;;;;17.55;45.64;100069.38;6296845;28;20140;-70
2023/06/03 07:11:22;;;;;;;1.75;0.63;;;;;;;17.93;44.37;100071.19;6296925;28;20560;-71
2023/06/03 07:14:23;;;;;;;8.93;0.52;;;;;;;18.13;43.15;100070.19;6296768;28;20049;-70
2023/06/03 07:17:24;;;;;;;3.88;0.82;;;;;;;17.81;44.78;100075.78;6295785;28;20064;-71
2023/06/03 07:20:35;;;;;;;2.33;0.60;;;;;;;17.49;44.44;100076.03;6296552;28;20492;-71
2023/06/03 07:23:36;;;;;;;0.50;0.40;;;;;;;17.92;42.40;100085.38;6298019;28;20448;-70
2023/06/03 07:26:39;;;;;;;7.53;0.90;;;;;;;18.18;43.14;100075.06;6321703;28;20095;-71
2023/06/03 07:29:39;;;;;;;0.90;0.55;;;;;;;18.81;42.50;100082.38;6301923;28;20135;-71
2023/06/03 07:32:43;;;;;;;1.52;0.77;;;;;;;18.86;41.99;100081.94;6302686;28;20040;-72
2023/06/03 07:35:44;;;;;;;1.15;0.50;;;;;;;19.02;41.77;100087.44;6320612;28;20101;-71
2023/06/03 07:38:51;;;;;;;6.03;0.63;;;;;;;19.13;41.54;100092.53;6309176;28;20048;-70
2023/06/03 07:41:52;;;;;;;1.13;0.68;;;;;;;19.16;41.86;100094.03;6295038;28;20067;-71
2023/06/03 07:44:55;;;;;;;1.63;0.53;;;;;;;19.31;41.25;100089.06;6295165;28;20515;-71
2023/06/03 07:48:02;;;;;;;0.85;0.60;;;;;;;19.22;41.16;100087.34;6295084;28;20053;-71
2023/06/03 07:51:10;;;;;;;1.13;0.73;;;;;;;18.87;43.00;100089.72;6307101;28;20052;-71
2023/06/03 07:54:13;;;;;;;0.68;0.60;;;;;;;18.52;43.33;100096.50;6320011;28;20048;-71
2023/06/03 07:57:14;;;;;;;0.90;0.52;;;;;;;18.76;42.33;100095.19;6313965;28;20063;-71
2023/06/03 08:00:17;;;;;;;4.57;0.80;;;;;;;18.39;42.17;100098.66;6296202;28;20053;-70
2023/06/03 08:03:22;;;;;;;1.27;0.80;;;;;;;18.88;41.73;100098.50;6306600;28;20076;-71
2023/06/03 08:06:25;;;;;;;2.00;0.77;;;;;;;18.77;42.75;100093.38;6316945;28;20082;-72
2023/06/03 08:09:32;;;;;;;0.77;0.50;;;;;;;18.89;42.60;100103.63;6321044;28;20048;-72
2023/06/03 08:12:34;;;;;;;2.10;0.70;;;;;;;18.86;41.60;100093.38;6313873;28;20552;-70
2023/06/03 08:15:37;;;;;;;2.47;0.80;;;;;;;19.24;41.52;100104.72;6302492;28;20090;-71
2023/06/03 08:18:44;;;;;;;1.30;1.10;;;;;;;19.73;39.68;100096.47;6296323;28;20630;-71
2023/06/03 08:21:44;;;;;;;7.78;0.80;;;;;;;20.11;44.26;100105.06;6294648;28;20393;-71
2023/06/03 08:24:45;;;;;;;1.70;0.57;;;;;;;20.03;39.93;100099.69;6306010;28;20082;-71
2023/06/03 08:27:47;;;;;;;3.17;0.95;;;;;;;19.90;39.76;100105.38;6316879;28;20056;-71
2023/06/03 08:30:47;;;;;;;1.08;0.60;;;;;;;20.26;40.99;100103.53;6320934;28;20048;-71
2023/06/03 08:33:48;;;;;;;7.72;0.77;;;;;;;20.28;41.74;100095.41;6319504;28;20139;-71
2023/06/03 08:36:49;;;;;;;1.52;0.60;;;;;;;20.72;40.86;100105.97;6320914;28;20054;-71
2023/06/03 08:39:50;;;;;;;0.70;0.60;;;;;;;20.58;38.32;100090.63;6320785;28;20076;-71
2023/06/03 08:43:00;;;;;;;1.33;0.85;;;;;;;20.25;39.14;100106.31;6319486;28;20052;-71
2023/06/03 08:46:03;;;;;;;1.52;0.70;;;;;;;20.20;39.15;100111.22;6303736;28;20131;-71
2023/06/03 08:49:07;;;;;;;0.82;0.57;;;;;;;20.79;38.42;100114.94;6294422;28;20048;-71
2023/06/03 08:52:10;;;;;;;6.57;1.13;;;;;;;20.67;39.93;100102.94;6294193;28;20095;-71
2023/06/03 08:55:15;;;;;;;1.05;0.40;;;;;;;20.89;39.21;100102.41;6295712;28;20051;-70
2023/06/03 08:58:22;;;;;;;0.50;0.50;;;;;;;20.94;39.17;100104.59;6295339;28;20052;-71
2023/06/03 09:01:46;;;;;;;1.35;0.75;;;;;;;21.09;37.92;100102.97;6304265;28;20058;-72
2023/06/03 09:04:49;;;;;;;9.15;0.85;;;;;;;21.22;36.86;100097.22;6320487;28;20044;-72
2023/06/03 09:07:50;;;;;;;2.22;0.90;;;;;;;21.89;38.85;100099.00;6320291;28;20132;-72
2023/06/03 09:10:52;;;;;;;1.90;0.73;;;;;;;21.89;37.27;100109.63;6323652;28;20052;-71
2023/06/03 09:13:54;;;;;;;0.75;0.50;;;;;;;21.88;36.99;100100.00;6324797;28;20499;-72
2023/06/03 09:16:55;;;;;;;3.13;1.13;;;;;;;20.89;37.74;100101.56;6324863;28;20066;-72
2023/06/03 09:20:02;;;;;;;2.83;1.50;;;;;;;21.63;37.43;100102.63;6324921;28;20052;-72
2023/06/03 09:23:06;;;;;;;2.05;0.90;;;;;;;21.31;37.18;100101.56;6324667;28;20047;-72
2023/06/03 09:26:07;;;;;;;1.35;0.63;;;;;;;21.87;36.35;100107.13;6324810;28;20129;-72
2023/06/03 09:29:08;;;;;;;2.08;0.85;;;;;;;21.93;35.76;100090.53;6324433;28;20145;-72
2023/06/03 09:32:08;;;;;;;1.17;0.80;;;;;;;22.31;35.14;100108.63;6324254;28;20048;-72
2023/06/03 09:35:12;;;;;;;0.73;0.60;;;;;;;22.03;36.44;100105.47;6318121;28;20659;-71
2023/06/03 09:38:13;;;;;;;0.80;0.70;;;;;;;21.91;35.93;100100.50;6324262;28;20048;-71
2023/06/03 09:41:15;;;;;;;1.80;0.80;;;;;;;21.70;37.66;100095.69;6324092;28;20059;-72
2023/06/03 09:44:15;;;;;;;0.45;0.45;;;;;;;22.51;36.70;100093.97;6324161;28;20083;-72
2023/06/03 09:47:16;;;;;;;1.07;0.80;;;;;;;22.53;34.61;100089.31;6323116;28;20127;-72
2023/06/03 09:50:17;;;;;;;5.10;0.80;;;;;;;23.05;34.21;100100.47;6323980;28;20048;-72
2023/06/03 09:53:21;;;;;;;5.20;0.90;;;;;;;22.86;34.84;100094.53;6322724;28;20054;-72
2023/06/03 09:56:28;;;;;;;1.00;0.50;;;;;;;22.68;34.33;100096.59;6322711;28;20591;-72
2023/06/03 09:59:30;;;;;;;0.95;0.68;;;;;;;22.77;33.94;100092.06;6323906;28;20044;-71
2023/06/03 10:02:30;;;;;;;5.72;0.85;;;;;;;23.00;33.69;100086.81;6323827;28;20090;-72
2023/06/03 10:05:33;;;;;;;1.43;0.70;;;;;;;23.50;34.95;100093.56;6322464;28;20056;-72
2023/06/03 10:08:34;;;;;;;0.98;0.68;;;;;;;22.83;33.28;100086.88;6323896;28;20075;-72
2023/06/03 10:11:51;;;;;;;0.90;0.70;;;;;;;22.94;34.20;100091.00;6322208;28;20116;-72
2023/06/03 10:14:53;;;;;;;1.10;0.52;;;;;;;22.54;34.43;100098.94;6322385;28;20040;-71
2023/06/03 10:17:54;;;;;;;0.60;0.40;;;;;;;22.89;34.24;100101.31;6321845;28;20098;-72
2023/06/03 10:20:55;;;;;;;5.43;0.87;;;;;;;23.39;33.91;100104.59;6311295;28;20044;-71
2023/06/03 10:24:00;;;;;;;1.33;0.70;;;;;;;23.10;33.35;100096.28;6298204;28;20051;-72
2023/06/03 10:27:04;;;;;;;3.20;0.80;;;;;;;22.97;33.82;100105.78;6297001;28;20080;-72
2023/06/03 10:30:06;;;;;;;0.55;0.45;;;;;;;23.60;33.84;100099.47;6306685;28;20048;-72
2023/06/03 10:33:11;;;;;;;3.78;0.75;;;;;;;24.01;34.50;100103.69;6322852;28;20408;-72
2023/06/03 10:36:12;;;;;;;0.60;0.60;;;;;;;24.19;32.24;100103.34;6322760;28;20620;-72
2023/06/03 10:39:12;;;;;;;1.92;0.98;;;;;;;23.70;32.29;100089.41;6323117;28;20130;-72
2023/06/03 10:42:13;;;;;;;1.43;0.73;;;;;;;24.47;32.08;100098.25;6322541;28;20117;-72
2023/06/03 10:45:14;;;;;;;3.50;0.60;;;;;;;23.53;32.08;100093.19;6322694;28;20443;-72
2023/06/03 10:48:18;;;;;;;1.23;0.70;;;;;;;24.37;33.51;100092.34;6322711;28;20075;-72
2023/06/03 10:51:37;;;;;;;2.22;0.75;;;;;;;23.97;33.04;100089.06;6321270;28;20064;-72
2023/06/03 10:54:47;;;;;;;0.98;0.70;;;;;;;24.58;32.55;100097.81;6319115;28;20051;-72
2023/06/03 10:57:56;;;;;;;7.63;0.77;;;;;;;24.57;31.53;100100.69;6321465;28;20052;-72
2023/06/03 11:01:02;;;;;;;6.78;1.67;;;;;;;24.53;34.83;100100.22;6306165;28;20052;-72
2023/06/03 11:04:04;;;;;;;0.63;0.55;;;;;;;24.26;33.01;100094.47;6304377;28;20048;-72
2023/06/03 11:07:26;;;;;;;1.55;0.70;;;;;;;24.53;34.68;100085.03;6297160;28;20599;-72
2023/06/03 11:10:36;;;;;;;4.38;0.63;;;;;;;24.74;32.75;100089.63;6295585;28;20080;-71
2023/06/03 11:13:45;;;;;;;1.13;0.80;;;;;;;24.40;32.03;100081.31;6306194;28;20048;-72
2023/06/03 11:16:57;;;;;;;1.65;0.82;;;;;;;24.17;33.89;100090.19;6308395;28;20076;-72
2023/06/03 11:19:58;;;;;;;4.88;0.93;;;;;;;23.90;33.78;100081.78;6295508;28;20044;-71
2023/06/03 11:22:59;;;;;;;0.87;0.60;;;;;;;24.40;33.40;100074.16;6295639;28;20052;-72
2023/06/03 11:26:38;;;;;;;1.27;0.83;;;;;;;24.87;32.72;100072.97;6309357;28;20134;-72
2023/06/03 11:29:48;;;;;;;5.15;1.00;;;;;;;25.02;30.96;100067.59;6295466;28;20500;-72
2023/06/03 11:33:07;;;;;;;2.88;0.80;;;;;;;24.36;32.52;100082.69;6295777;28;20054;-72
2023/06/03 11:36:50;;;;;;;1.50;0.85;;;;;;;25.13;32.60;100075.13;6295433;28;20492;-73
2023/06/03 11:40:05;;;;;;;0.80;0.80;;;;;;;25.01;31.62;100065.13;6295327;28;20060;-73
2023/06/03 11:43:07;;;;;;;1.20;0.77;;;;;;;24.69;32.15;100072.53;6302119;28;20048;-72
2023/06/03 11:46:08;;;;;;;3.72;0.82;;;;;;;24.60;31.21;100076.28;6317197;28;20058;-72
2023/06/03 11:49:09;;;;;;;5.10;0.97;;;;;;;24.75;32.02;100074.47;6298980;28;20052;-71
2023/06/03 11:52:10;;;;;;;;;;;;;;;24.83;32.39;100070.84;6292829;28;20056;-72
2023/06/03 11:55:24;;;;;;;2.38;1.13;;;;;;;25.18;30.78;100065.72;6296421;28;19928;-72
2023/06/03 11:58:25;;;;;;;4.57;1.33;;;;;;;25.03;31.17;100074.59;6309833;28;20465;-71
2023/06/03 12:01:28;;;;;;;1.00;0.90;;;;;;;25.06;31.80;100065.38;6319801;28;20054;-72
2023/06/03 12:04:30;;;;;;;1.75;0.93;;;;;;;24.72;29.38;100064.97;6321606;28;20044;-72
2023/06/03 12:07:31;;;;;;;4.70;0.85;;;;;;;24.63;31.97;100067.94;6321466;28;20141;-72
2023/06/03 12:10:40;;;;;;;4.70;0.83;;;;;;;24.48;32.05;100070.56;6319981;28;20052;-72
2023/06/03 12:13:44;;;;;;;2.45;1.00;;;;;;;24.72;31.88;100061.47;6321130;28;20127;-72
2023/06/03 12:16:45;;;;;;;1.13;0.63;;;;;;;25.60;30.98;100064.94;6314309;28;20057;-72
2023/06/03 12:19:48;;;;;;;1.38;0.70;;;;;;;25.69;31.01;100070.97;6309731;28;20504;-72
2023/06/03 12:22:50;;;;;;;1.25;0.80;;;;;;;25.49;30.86;100063.63;6319797;28;20049;-72
2023/06/03 12:25:55;;;;;;;1.52;1.00;;;;;;;25.60;29.76;100062.28;6321187;28;20083;-71
2023/06/03 12:29:09;;;;;;;1.75;1.00;;;;;;;25.52;29.07;100057.88;6304855;28;20048;-72
2023/06/03 12:32:10;;;;;;;2.22;1.00;;;;;;;25.64;30.46;100060.88;6314616;28;20114;-72
2023/06/03 12:35:12;;;;;;;1.13;0.90;;;;;;;25.91;29.47;100058.47;6308058;28;20403;-72
2023/06/03 12:38:13;;;;;;;0.88;0.70;;;;;;;25.64;31.36;100055.53;6320903;28;20048;-72
2023/06/03 12:41:14;;;;;;;1.47;0.97;;;;;;;25.57;30.83;100040.47;6319466;28;20492;-72
2023/06/03 12:44:14;;;;;;;1.10;0.90;;;;;;;25.39;30.14;100038.22;6323142;28;20302;-72
2023/06/03 12:47:17;;;;;;;1.40;0.70;;;;;;;25.39;30.29;100043.56;6301676;28;20106;-72
2023/06/03 12:50:20;;;;;;;1.20;0.85;;;;;;;25.57;30.51;100033.25;6323633;28;20056;-72
2023/06/03 12:53:21;;;;;;;0.65;0.60;;;;;;;25.51;30.22;100036.69;6325376;28;20051;-72
2023/06/03 12:56:31;;;;;;;7.50;0.97;;;;;;;26.14;29.19;100034.97;6324176;28;20048;-72
2023/06/03 12:59:32;;;;;;;5.25;0.80;;;;;;;26.06;28.95;100028.97;6325188;28;20416;-71
2023/06/03 13:02:36;;;;;;;1.55;1.02;;;;;;;25.68;29.98;100026.59;6323925;28;20076;-73
2023/06/03 13:05:37;;;;;;;2.97;0.68;;;;;;;25.72;31.04;100036.69;6325434;28;20048;-72
2023/06/03 13:08:38;;;;;;;1.73;0.90;;;;;;;25.94;29.21;100031.34;6325141;28;20519;-72
2023/06/03 13:11:39;;;;;;;7.07;0.97;;;;;;;25.75;30.84;100024.78;6324926;28;20063;-71
2023/06/03 13:14:40;;;;;;;0.73;0.70;;;;;;;25.14;29.82;100027.88;6317371;28;20176;-72
2023/06/03 13:17:41;;;;;;;4.65;0.80;;;;;;;25.03;30.26;100031.06;6311244;28;20679;-72
2023/06/03 13:20:41;;;;;;;1.03;0.73;;;;;;;25.23;30.24;100036.66;6303081;28;20056;-72
2023/06/03 13:23:42;;;;;;;1.77;1.07;;;;;;;24.94;30.04;100031.16;6306229;28;20489;-73
2023/06/03 13:26:43;;;;;;;1.60;0.77;;;;;;;24.87;29.20;100021.44;6311319;28;20119;-72
2023/06/03 13:29:44;;;;;;;2.00;0.70;;;;;;;25.23;30.84;100020.63;6306528;28;20044;-72
2023/06/03 13:32:45;;;;;;;1.87;0.77;;;;;;;25.36;30.54;100019.94;6308374;28;20135;-72
2023/06/03 13:35:46;;;;;;;0.82;0.70;;;;;;;25.48;28.97;100018.41;6302754;28;20418;-72
2023/06/03 13:38:48;;;;;;;1.50;0.83;;;;;;;25.43;30.50;100024.31;6308319;28;20174;-72
2023/06/03 13:41:53;;;;;;;1.10;0.70;;;;;;;25.41;29.10;100018.34;6307694;28;20384;-72
2023/06/03 13:44:54;;;;;;;4.55;0.63;;;;;;;25.04;29.25;100022.03;6309545;28;20524;-72
2023/06/03 13:47:56;;;;;;;2.13;0.80;;;;;;;25.19;30.39;100032.69;6306496;28;20052;-72
2023/06/03 13:50:56;;;;;;;;;;;;;;;25.25;28.88;100027.44;6299249;28;20093;-72
2023/06/03 13:53:57;;;;;;;1.70;0.75;;;;;;;25.15;29.91;100021.53;6323033;28;20313;-72
2023/06/03 13:56:58;;;;;;;0.70;0.70;;;;;;;25.26;29.98;100029.06;6322773;28;20044;-72
2023/06/03 14:00:01;;;;;;;1.17;0.80;;;;;;;25.45;30.49;100016.09;6323990;28;20291;-72
2023/06/03 14:03:05;;;;;;;2.10;1.10;;;;;;;25.32;30.16;100016.81;6324028;28;20185;-72
2023/06/03 14:06:06;;;;;;;1.17;0.80;;;;;;;25.24;29.79;100016.94;6323758;28;20048;-72
2023/06/03 14:09:07;;;;;;;3.90;1.15;;;;;;;25.30;29.87;100019.66;6323554;28;20055;-72
2023/06/03 14:12:07;;;;;;;2.78;1.02;;;;;;;24.65;30.01;100005.38;6319777;28;20060;-72
2023/06/03 14:15:09;;;;;;;6.57;2.23;;;;;;;24.20;29.60;100001.88;6305840;28;20049;-72
2023/06/03 14:18:09;;;;;;;7.63;1.73;;;;;;;24.74;29.08;100009.59;6302491;28;20622;-72